Time;durP1;ratioP1;P1;durP2;ratioP2;P2;SDS_P1;SDS_P2;PMS_P1;PMS_P2;Temp;Humidity;BMP_temperature;BMP_pressure;BME280_temperature;BME280_humidity;BME280_pressure;Samples;Min_cycle;Max_cycle;Signal;HPM_P1;HPM_P2
2022/07/01 00:02:05;;;;;;;1.98;0.70;;;17.40;99.90;;;;;;5115214;28;20048;-34
2022/07/01 00:04:31;;;;;;;6.38;1.27;;;17.40;99.90;;;;;;5108919;28;20437;-33
2022/07/01 00:06:58;;;;;;;4.00;1.20;;;17.50;99.90;;;;;;5098178;28;20071;-33
2022/07/01 00:09:25;;;;;;;6.80;1.30;;;17.40;99.90;;;;;;5100505;27;20051;-33
2022/07/01 00:11:53;;;;;;;4.95;1.05;;;17.40;99.90;;;;;;5099160;27;20123;-33
2022/07/01 00:14:22;;;;;;;5.25;1.38;;;17.50;99.90;;;;;;5094970;28;20134;-33
2022/07/01 00:16:49;;;;;;;2.35;1.10;;;17.50;99.90;;;;;;5106045;28;20043;-33
2022/07/01 00:19:16;;;;;;;3.90;1.30;;;17.40;99.90;;;;;;5114638;28;20082;-33
2022/07/01 00:21:43;;;;;;;3.33;1.08;;;17.40;99.90;;;;;;5113220;27;20086;-33
2022/07/01 00:24:09;;;;;;;3.25;1.05;;;17.40;99.90;;;;;;5112785;28;20472;-33
2022/07/01 00:26:36;;;;;;;6.75;1.30;;;17.40;99.90;;;;;;5101336;27;20141;-33
2022/07/01 00:29:04;;;;;;;3.72;1.10;;;17.30;99.90;;;;;;5126700;27;20101;-34
2022/07/01 00:31:31;;;;;;;2.17;0.80;;;17.30;99.90;;;;;;5100461;27;20067;-33
2022/07/01 00:33:58;;;;;;;3.55;0.90;;;17.30;99.90;;;;;;5108031;27;20082;-33
2022/07/01 00:36:25;;;;;;;5.63;1.20;;;17.30;99.90;;;;;;5093884;27;20105;-34
2022/07/01 00:38:51;;;;;;;3.30;0.93;;;17.30;99.90;;;;;;5094151;28;20056;-34
2022/07/01 00:41:18;;;;;;;4.05;0.82;;;17.20;99.90;;;;;;5101149;27;20080;-34
2022/07/01 00:43:45;;;;;;;3.38;0.68;;;17.20;99.90;;;;;;5099071;27;20119;-34
2022/07/01 00:46:13;;;;;;;1.85;0.93;;;17.20;99.90;;;;;;5096203;27;20105;-33
2022/07/01 00:48:40;;;;;;;3.38;0.75;;;17.10;99.90;;;;;;5106723;28;20105;-33
2022/07/01 00:51:07;;;;;;;2.05;0.77;;;17.10;99.90;;;;;;5105718;28;20487;-33
2022/07/01 00:53:34;;;;;;;1.63;0.70;;;17.10;99.90;;;;;;5093779;28;20060;-33
2022/07/01 00:56:01;;;;;;;1.20;0.60;;;17.10;99.90;;;;;;5094589;27;20105;-34
2022/07/01 00:58:28;;;;;;;2.45;0.70;;;17.00;99.90;;;;;;5094101;28;20089;-33
2022/07/01 01:00:55;;;;;;;2.35;0.80;;;17.00;99.90;;;;;;5094790;28;20056;-33
2022/07/01 01:03:23;;;;;;;1.95;0.60;;;17.00;99.90;;;;;;5101727;28;20135;-33
2022/07/01 01:05:50;;;;;;;2.38;0.50;;;17.00;99.90;;;;;;5112662;27;20131;-34
2022/07/01 01:08:16;;;;;;;1.00;0.60;;;16.90;99.90;;;;;;5093661;28;20471;-34
2022/07/01 01:10:43;;;;;;;2.10;0.60;;;16.90;99.90;;;;;;5094385;28;20048;-33
2022/07/01 01:13:12;;;;;;;1.95;0.50;;;16.90;99.90;;;;;;5093134;27;20091;-34
2022/07/01 01:15:39;;;;;;;1.08;0.50;;;17.00;99.90;;;;;;5094407;28;20052;-34
2022/07/01 01:18:06;;;;;;;4.70;0.70;;;17.00;99.90;;;;;;5111536;27;20166;-34
2022/07/01 01:20:35;;;;;;;1.13;0.50;;;17.00;99.90;;;;;;5096303;28;20051;-34
2022/07/01 01:23:03;;;;;;;2.08;0.57;;;17.10;99.90;;;;;;5100457;27;20103;-34
2022/07/01 01:25:30;;;;;;;2.95;0.70;;;17.00;99.90;;;;;;5101316;28;20058;-33
2022/07/01 01:27:56;;;;;;;2.45;0.60;;;17.00;99.90;;;;;;5095884;28;20108;-33
2022/07/01 01:30:23;;;;;;;1.35;0.65;;;17.00;99.90;;;;;;5095142;27;20101;-34
2022/07/01 01:32:50;;;;;;;3.03;0.63;;;17.00;99.90;;;;;;5094037;28;20083;-33
2022/07/01 01:35:17;;;;;;;3.10;0.63;;;17.00;99.90;;;;;;5111086;27;20047;-34
2022/07/01 01:37:45;;;;;;;2.53;0.90;;;17.00;99.90;;;;;;5102464;27;20071;-34
2022/07/01 01:40:14;;;;;;;0.50;0.40;;;17.00;99.90;;;;;;5105273;28;20094;-34
2022/07/01 01:42:41;;;;;;;1.02;0.60;;;17.00;99.90;;;;;;5104816;27;20043;-33
2022/07/01 01:45:09;;;;;;;0.73;0.60;;;17.00;99.90;;;;;;5109917;27;20071;-34
2022/07/01 01:47:35;;;;;;;4.53;0.70;;;17.00;99.90;;;;;;5100677;28;20080;-34
2022/07/01 01:50:02;;;;;;;2.45;0.70;;;17.10;99.90;;;;;;5100252;28;20043;-33
2022/07/01 01:52:29;;;;;;;1.42;0.65;;;17.00;99.90;;;;;;5113077;28;20108;-34
2022/07/01 01:54:57;;;;;;;2.70;0.60;;;17.10;99.90;;;;;;5104715;27;20124;-34
2022/07/01 01:57:24;;;;;;;5.35;0.80;;;17.10;99.90;;;;;;5135834;27;20121;-34
2022/07/01 01:59:51;;;;;;;3.47;0.90;;;17.10;99.90;;;;;;5106669;28;20059;-34
2022/07/01 02:02:18;;;;;;;1.15;0.60;;;17.10;99.90;;;;;;5093248;28;20079;-34
2022/07/01 02:04:44;;;;;;;1.60;1.00;;;17.10;99.90;;;;;;5093779;28;20094;-34
2022/07/01 02:07:11;;;;;;;2.10;1.05;;;17.10;99.90;;;;;;5111959;28;20086;-34
2022/07/01 02:09:38;;;;;;;1.13;0.73;;;17.10;99.90;;;;;;5110710;28;20079;-34
2022/07/01 02:12:07;;;;;;;2.95;1.08;;;17.10;99.90;;;;;;5104403;28;20134;-34
2022/07/01 02:14:33;;;;;;;1.42;0.90;;;17.10;99.90;;;;;;5109708;28;20105;-34
2022/07/01 02:17:00;;;;;;;1.73;0.93;;;17.10;99.90;;;;;;5108902;28;20464;-34
2022/07/01 02:19:27;;;;;;;1.83;1.10;;;17.20;99.90;;;;;;5095937;28;20119;-34
2022/07/01 02:21:55;;;;;;;2.88;1.13;;;17.10;99.90;;;;;;5093086;27;20072;-34
2022/07/01 02:24:22;;;;;;;5.40;1.20;;;17.10;99.90;;;;;;5092934;28;20113;-34
2022/07/01 02:26:49;;;;;;;2.33;1.00;;;17.10;99.90;;;;;;5131344;27;20052;-34
2022/07/01 02:29:17;;;;;;;1.40;1.10;;;17.00;99.90;;;;;;5099001;28;20075;-34
2022/07/01 02:31:43;;;;;;;2.25;1.40;;;17.00;99.90;;;;;;5101795;28;20086;-34
2022/07/01 02:34:10;;;;;;;3.63;1.00;;;17.10;99.90;;;;;;5098894;28;20040;-34
2022/07/01 02:36:37;;;;;;;2.10;1.17;;;17.10;99.90;;;;;;5095405;27;20077;-34
2022/07/01 02:39:04;;;;;;;2.95;1.58;;;17.10;99.90;;;;;;5109730;28;20552;-34
2022/07/01 02:41:30;;;;;;;1.52;1.42;;;17.10;99.90;;;;;;5110751;28;20287;-34
2022/07/01 02:43:57;;;;;;;4.03;1.80;;;17.10;99.90;;;;;;5107334;28;20131;-34
2022/07/01 02:46:25;;;;;;;2.55;1.50;;;17.10;99.90;;;;;;5098391;28;20044;-34
2022/07/01 02:48:52;;;;;;;2.08;1.65;;;17.10;99.90;;;;;;5093872;28;20507;-32
2022/07/01 02:51:19;;;;;;;4.75;2.50;;;17.10;99.90;;;;;;5109465;28;20143;-33
2022/07/01 02:53:46;;;;;;;2.42;1.92;;;17.10;99.90;;;;;;5108240;28;20044;-33
2022/07/01 02:56:12;;;;;;;4.53;2.58;;;17.10;99.90;;;;;;5092473;28;20071;-33
2022/07/01 02:58:39;;;;;;;4.28;2.55;;;17.10;99.90;;;;;;5099132;28;20100;-33
2022/07/01 03:01:06;;;;;;;4.25;2.80;;;17.00;99.90;;;;;;5099181;28;20044;-33
2022/07/01 03:03:34;;;;;;;4.45;2.88;;;17.00;99.90;;;;;;5092427;28;20450;-33
2022/07/01 03:06:01;;;;;;;5.30;2.72;;;17.00;99.90;;;;;;5095926;28;20135;-33
2022/07/01 03:08:28;;;;;;;4.10;2.60;;;16.90;99.90;;;;;;5127842;27;20086;-33
2022/07/01 03:10:54;;;;;;;4.93;2.40;;;16.90;99.90;;;;;;5099544;28;20137;-33
2022/07/01 03:13:21;;;;;;;5.45;3.28;;;16.90;99.90;;;;;;5091775;28;20097;-33
2022/07/01 03:15:48;;;;;;;6.50;3.88;;;16.90;99.90;;;;;;5100782;28;20076;-33
2022/07/01 03:18:15;;;;;;;3.63;2.72;;;16.80;99.90;;;;;;5112935;28;20525;-34
2022/07/01 03:20:43;;;;;;;7.07;4.65;;;16.80;99.90;;;;;;5106005;28;20048;-34
2022/07/01 03:23:10;;;;;;;10.95;6.47;;;16.70;99.90;;;;;;5111667;28;20056;-34
2022/07/01 03:25:37;;;;;;;7.97;5.85;;;16.70;99.90;;;;;;5095333;28;20492;-33
2022/07/01 03:28:04;;;;;;;7.57;5.75;;;16.60;99.90;;;;;;5093107;28;20495;-33
2022/07/01 03:30:31;;;;;;;9.88;6.97;;;16.50;99.90;;;;;;5110686;28;20051;-33
2022/07/01 03:32:58;;;;;;;7.82;6.35;;;16.50;99.90;;;;;;5111620;28;20505;-33
2022/07/01 03:35:39;;;;;;;9.02;7.47;;;16.50;99.90;;;;;;5106539;28;20075;-33
2022/07/01 03:38:08;;;;;;;12.00;7.20;;;16.50;99.90;;;;;;5105943;28;20052;-33
2022/07/01 03:40:35;;;;;;;10.88;8.05;;;16.40;99.90;;;;;;5109617;28;20380;-33
2022/07/01 03:43:02;;;;;;;8.52;7.38;;;16.40;99.90;;;;;;5111906;28;20055;-34
2022/07/01 03:45:29;;;;;;;13.90;8.93;;;16.40;99.90;;;;;;5097519;28;20044;-34
2022/07/01 03:47:55;;;;;;;14.55;10.32;;;16.50;99.90;;;;;;5097087;28;20093;-34
2022/07/01 03:50:23;;;;;;;14.77;11.45;;;16.50;99.90;;;;;;5112592;28;20086;-33
2022/07/01 03:54:29;;;;;;;12.10;8.93;;;16.40;99.90;;;;;;5112200;28;20083;-33
2022/07/01 03:55:37;;;;;;;12.10;9.00;;;16.40;99.90;;;;;;5091668;28;20058;-33
2022/07/01 03:58:04;;;;;;;12.45;8.98;;;16.40;99.90;;;;;;5102233;28;20833;-34
2022/07/01 04:00:32;;;;;;;17.52;10.13;;;16.40;99.90;;;;;;5093547;28;20117;-34
2022/07/01 04:02:59;;;;;;;14.25;11.27;;;16.40;99.90;;;;;;5091273;28;20133;-34
2022/07/01 04:05:25;;;;;;;16.65;14.13;;;16.40;99.90;;;;;;5106633;28;20083;-34
2022/07/01 04:07:52;;;;;;;15.75;12.80;;;16.40;99.90;;;;;;5096899;27;20110;-33
2022/07/01 04:10:19;;;;;;;16.35;12.88;;;16.30;99.90;;;;;;5095508;28;20075;-33
2022/07/01 04:12:47;;;;;;;23.75;18.30;;;16.40;99.90;;;;;;5098040;27;20083;-33
2022/07/01 04:15:14;;;;;;;22.27;17.88;;;16.40;99.90;;;;;;5109251;27;20071;-33
2022/07/01 04:17:41;;;;;;;26.00;20.27;;;16.30;99.90;;;;;;5106835;28;20044;-33
2022/07/01 04:20:09;;;;;;;26.35;21.20;;;16.20;99.90;;;;;;5100277;28;20058;-33
2022/07/01 04:22:35;;;;;;;21.33;17.60;;;16.20;99.90;;;;;;5110632;27;20055;-34
2022/07/01 04:25:03;;;;;;;33.20;23.77;;;16.20;99.90;;;;;;5109256;28;20101;-34
2022/07/01 04:27:30;;;;;;;25.83;22.75;;;16.20;99.90;;;;;;5096714;28;20060;-33
2022/07/01 04:29:58;;;;;;;33.75;23.48;;;16.20;99.90;;;;;;5113301;27;20436;-33
2022/07/01 04:32:25;;;;;;;28.23;23.73;;;16.10;99.90;;;;;;5101133;28;20139;-33
2022/07/01 04:34:52;;;;;;;22.23;18.98;;;16.10;99.90;;;;;;5097878;28;20101;-34
2022/07/01 04:37:19;;;;;;;32.47;24.00;;;16.10;99.90;;;;;;5100263;28;20058;-34
2022/07/01 04:39:46;;;;;;;33.25;24.65;;;16.00;99.90;;;;;;5109363;27;20075;-33
2022/07/01 04:42:14;;;;;;;27.75;23.50;;;16.00;99.90;;;;;;5094982;27;20084;-33
2022/07/01 04:44:41;;;;;;;32.83;24.90;;;16.00;99.90;;;;;;5103576;28;20081;-34
2022/07/01 04:47:09;;;;;;;31.20;22.85;;;16.00;99.90;;;;;;5097947;27;20108;-34
2022/07/01 04:49:36;;;;;;;28.02;22.95;;;16.00;99.90;;;;;;5102933;28;20407;-34
2022/07/01 04:52:03;;;;;;;30.45;25.25;;;15.90;99.90;;;;;;5095127;28;20094;-33
2022/07/01 04:54:30;;;;;;;32.38;23.38;;;16.00;99.90;;;;;;5095088;28;20460;-33
2022/07/01 04:56:57;;;;;;;30.85;25.80;;;16.00;99.90;;;;;;5097506;28;20134;-34
2022/07/01 04:59:24;;;;;;;29.02;23.77;;;16.00;99.90;;;;;;5114181;28;20146;-34
2022/07/01 05:01:51;;;;;;;36.75;26.02;;;16.00;99.90;;;;;;5107558;27;20043;-34
2022/07/01 05:04:19;;;;;;;31.83;23.10;;;16.00;99.90;;;;;;5113863;28;20047;-34
2022/07/01 05:06:46;;;;;;;31.70;24.33;;;16.00;99.90;;;;;;5112015;28;20109;-34
2022/07/01 05:09:12;;;;;;;30.35;24.02;;;16.00;99.90;;;;;;5094981;28;20097;-33
2022/07/01 05:11:39;;;;;;;32.67;26.08;;;16.00;99.90;;;;;;5104703;27;20052;-33
2022/07/01 05:14:07;;;;;;;32.63;25.65;;;16.00;99.90;;;;;;5097739;28;20048;-34
2022/07/01 05:16:33;;;;;;;37.22;27.83;;;16.00;99.90;;;;;;5113090;28;20051;-34
2022/07/01 05:22:01;;;;;;;34.17;26.83;;;16.00;99.90;;;;;;5112900;28;20487;-34
2022/07/01 05:24:30;;;;;;;33.03;26.88;;;16.10;99.90;;;;;;5102385;28;20096;-35
2022/07/01 05:26:57;;;;;;;29.63;24.65;;;16.00;99.90;;;;;;5114739;28;20051;-35
2022/07/01 05:29:24;;;;;;;36.85;28.08;;;16.00;99.90;;;;;;5113931;28;20098;-35
2022/07/01 05:31:50;;;;;;;28.90;23.92;;;16.10;99.90;;;;;;5105713;28;20415;-34
2022/07/01 05:34:17;;;;;;;33.92;27.23;;;16.00;99.90;;;;;;5098627;28;20035;-34
2022/07/01 05:36:45;;;;;;;31.23;26.33;;;16.10;99.90;;;;;;5113449;28;20079;-34
2022/07/01 05:39:12;;;;;;;33.65;28.15;;;16.00;99.90;;;;;;5096064;28;20051;-34
2022/07/01 05:41:39;;;;;;;31.58;26.83;;;16.00;99.90;;;;;;5094550;27;20128;-34
2022/07/01 05:44:06;;;;;;;33.15;26.98;;;16.00;99.90;;;;;;5103632;27;20840;-34
2022/07/01 05:46:33;;;;;;;28.77;23.25;;;16.00;99.90;;;;;;5111539;28;20043;-34
2022/07/01 05:49:00;;;;;;;32.65;26.27;;;16.00;99.90;;;;;;5102107;28;20117;-34
2022/07/01 05:51:27;;;;;;;30.30;26.23;;;16.00;99.90;;;;;;5134426;27;20163;-34
2022/07/01 05:53:56;;;;;;;30.45;24.77;;;16.10;99.90;;;;;;5110856;28;20128;-34
2022/07/01 05:56:22;;;;;;;36.25;27.70;;;16.10;99.90;;;;;;5100336;28;20040;-33
2022/07/01 05:58:49;;;;;;;35.90;28.70;;;16.10;99.90;;;;;;5107111;28;20075;-34
2022/07/01 06:01:16;;;;;;;30.67;25.13;;;16.10;99.90;;;;;;5105612;27;20136;-34
2022/07/01 06:03:43;;;;;;;31.35;26.60;;;16.10;99.90;;;;;;5094601;28;20044;-34
2022/07/01 06:06:10;;;;;;;30.13;23.52;;;16.10;99.90;;;;;;5095319;28;20080;-35
2022/07/01 06:08:36;;;;;;;33.25;26.77;;;16.20;99.90;;;;;;5107080;28;20118;-34
2022/07/01 06:11:04;;;;;;;28.05;25.05;;;16.20;99.90;;;;;;5105923;28;20105;-35
2022/07/01 06:13:31;;;;;;;36.28;26.77;;;16.30;99.90;;;;;;5096485;28;20594;-34
2022/07/01 06:15:59;;;;;;;28.17;23.33;;;16.30;99.90;;;;;;5108865;28;20044;-34
2022/07/01 06:18:26;;;;;;;31.48;26.83;;;16.30;99.90;;;;;;5112818;28;20076;-34
2022/07/01 06:20:56;;;;;;;36.63;27.25;;;16.30;99.90;;;;;;5109418;28;20229;-34
2022/07/01 06:23:25;;;;;;;36.20;27.85;;;16.30;99.90;;;;;;5105682;28;20072;-34
2022/07/01 06:25:52;;;;;;;29.73;25.58;;;16.40;99.90;;;;;;5107464;28;20097;-33
2022/07/01 06:28:21;;;;;;;34.50;27.90;;;16.40;99.90;;;;;;5111420;28;20043;-34
2022/07/01 06:30:47;;;;;;;33.95;26.75;;;16.40;99.90;;;;;;5104552;28;20048;-34
2022/07/01 06:33:14;;;;;;;31.60;25.15;;;16.40;99.90;;;;;;5099191;28;20052;-34
2022/07/01 06:35:41;;;;;;;34.10;28.73;;;16.40;99.90;;;;;;5092035;28;20470;-34
2022/07/01 06:38:08;;;;;;;30.63;26.27;;;16.40;99.90;;;;;;5106145;27;20518;-34
2022/07/01 06:40:35;;;;;;;32.47;27.90;;;16.50;99.90;;;;;;5103948;28;20043;-34
2022/07/01 06:43:01;;;;;;;30.95;27.30;;;16.50;99.90;;;;;;5106050;28;20140;-33
2022/07/01 06:45:30;;;;;;;36.28;29.70;;;16.50;99.90;;;;;;5091508;28;20097;-35
2022/07/01 06:47:56;;;;;;;30.88;25.90;;;16.50;99.90;;;;;;5097412;28;20406;-34
2022/07/01 06:50:23;;;;;;;32.42;27.08;;;16.50;99.90;;;;;;5107977;28;20074;-35
2022/07/01 06:52:50;;;;;;;30.45;26.70;;;16.50;99.90;;;;;;5103099;28;20109;-34
2022/07/01 06:55:17;;;;;;;34.95;26.83;;;16.60;99.90;;;;;;5106673;28;20047;-33
2022/07/01 06:57:44;;;;;;;34.65;26.88;;;16.50;99.90;;;;;;5108998;28;20055;-33
2022/07/01 07:00:12;;;;;;;32.03;25.50;;;16.50;99.90;;;;;;5097038;28;20048;-34
2022/07/01 07:02:40;;;;;;;27.85;24.15;;;16.60;99.90;;;;;;5091231;28;20048;-34
2022/07/01 07:05:08;;;;;;;31.85;25.45;;;16.60;99.90;;;;;;5130367;27;20566;-34
2022/07/01 07:07:35;;;;;;;26.98;23.10;;;16.60;99.90;;;;;;5091690;28;20419;-34
2022/07/01 07:10:02;;;;;;;31.83;25.50;;;16.60;99.90;;;;;;5099486;28;20048;-33
2022/07/01 07:12:29;;;;;;;32.35;26.65;;;16.70;99.90;;;;;;5112161;28;20101;-34
2022/07/01 07:14:56;;;;;;;28.85;24.00;;;16.70;99.90;;;;;;5102408;28;20096;-35
2022/07/01 07:17:22;;;;;;;34.13;25.27;;;16.70;99.90;;;;;;5112128;28;20047;-33
2022/07/01 07:19:51;;;;;;;27.95;24.98;;;16.70;99.90;;;;;;5097105;28;20070;-33
2022/07/01 07:22:18;;;;;;;29.50;24.00;;;16.80;99.90;;;;;;5111085;28;20442;-34
2022/07/01 07:24:45;;;;;;;31.52;25.10;;;16.80;99.90;;;;;;5110679;28;20092;-34
2022/07/01 07:27:12;;;;;;;29.20;24.98;;;16.80;99.90;;;;;;5099914;28;20051;-34
2022/07/01 07:29:39;;;;;;;29.63;25.52;;;16.90;99.90;;;;;;5104455;28;20044;-35
2022/07/01 07:32:06;;;;;;;30.70;25.30;;;17.00;99.90;;;;;;5091981;28;20047;-34
2022/07/01 07:34:34;;;;;;;35.00;25.27;;;17.10;99.90;;;;;;5105726;28;20083;-34
2022/07/01 07:37:02;;;;;;;27.05;22.55;;;17.10;99.90;;;;;;5093967;28;20048;-34
2022/07/01 07:39:29;;;;;;;31.20;23.05;;;17.20;99.90;;;;;;5109970;28;20071;-34
2022/07/01 07:41:56;;;;;;;28.52;23.60;;;17.30;99.90;;;;;;5111207;28;21814;-34
2022/07/01 07:44:23;;;;;;;27.92;23.92;;;17.40;99.90;;;;;;5095277;28;20116;-35
2022/07/01 07:46:49;;;;;;;25.20;21.25;;;17.40;99.90;;;;;;5112401;28;20087;-34
2022/07/01 07:49:16;;;;;;;27.10;21.83;;;17.50;99.90;;;;;;5113696;28;20392;-34
2022/07/01 07:51:43;;;;;;;27.27;21.35;;;17.60;99.90;;;;;;5106147;28;20105;-34
2022/07/01 07:54:11;;;;;;;24.55;20.15;;;17.80;99.90;;;;;;5112918;28;20123;-33
2022/07/01 07:56:38;;;;;;;26.98;20.92;;;17.90;99.90;;;;;;5103907;28;20538;-33
2022/07/01 07:59:05;;;;;;;28.88;20.85;;;18.00;99.90;;;;;;5110550;28;20055;-33
2022/07/01 08:01:32;;;;;;;28.88;21.05;;;18.00;99.90;;;;;;5114475;28;20576;-34
2022/07/01 08:03:58;;;;;;;23.88;18.83;;;18.10;99.90;;;;;;5101825;28;20579;-34
2022/07/01 08:06:25;;;;;;;24.92;19.02;;;18.20;99.90;;;;;;5094195;27;20048;-34
2022/07/01 08:08:52;;;;;;;22.98;19.08;;;18.30;99.90;;;;;;5103283;28;20514;-34
2022/07/01 08:11:20;;;;;;;22.60;16.90;;;18.30;99.90;;;;;;5102650;28;20484;-34
2022/07/01 08:13:47;;;;;;;29.80;18.00;;;18.40;99.90;;;;;;5114066;28;20055;-34
2022/07/01 08:16:14;;;;;;;22.70;17.95;;;18.40;99.90;;;;;;5101136;27;20143;-34
2022/07/01 08:18:40;;;;;;;21.55;17.48;;;18.50;99.90;;;;;;5105199;28;20058;-34
2022/07/01 08:21:07;;;;;;;18.52;14.93;;;18.60;99.90;;;;;;5107491;28;20086;-33
2022/07/01 08:23:35;;;;;;;24.13;16.88;;;18.80;99.90;;;;;;5104410;28;20498;-33
2022/07/01 08:26:02;;;;;;;20.50;15.60;;;18.90;99.90;;;;;;5099593;28;20052;-33
2022/07/01 08:28:30;;;;;;;20.02;15.48;;;19.10;99.90;;;;;;5101131;28;20071;-34
2022/07/01 08:30:57;;;;;;;18.85;14.82;;;19.30;99.90;;;;;;5113228;28;20497;-34
2022/07/01 08:33:23;;;;;;;17.80;15.88;;;19.40;99.90;;;;;;5135419;27;20478;-34
2022/07/01 08:35:50;;;;;;;17.13;13.15;;;19.50;99.90;;;;;;5105074;28;20125;-34
2022/07/01 08:38:17;;;;;;;19.02;15.40;;;19.60;99.90;;;;;;5110885;28;20132;-33
2022/07/01 08:40:45;;;;;;;20.58;15.80;;;19.60;99.90;;;;;;5114273;28;20089;-34
2022/07/01 08:43:11;;;;;;;20.23;15.30;;;19.60;99.70;;;;;;5114475;28;20127;-34
2022/07/01 08:45:39;;;;;;;27.05;16.10;;;19.50;99.60;;;;;;5111996;28;20122;-34
2022/07/01 08:48:06;;;;;;;23.08;14.98;;;19.50;99.50;;;;;;5110522;28;20411;-34
2022/07/01 08:50:36;;;;;;;22.92;14.98;;;19.40;99.30;;;;;;5111837;28;20126;-34
2022/07/01 08:53:03;;;;;;;16.23;12.43;;;19.50;99.70;;;;;;5113635;28;20445;-33
2022/07/01 08:55:30;;;;;;;19.02;13.45;;;19.60;99.70;;;;;;5110222;27;20048;-33
2022/07/01 08:57:57;;;;;;;19.95;13.93;;;19.80;99.50;;;;;;5097227;28;20122;-34
2022/07/01 09:00:30;;;;;;;23.30;13.55;;;19.80;99.20;;;;;;5093512;28;20447;-34
2022/07/01 09:02:59;;;;;;;17.83;13.15;;;20.00;98.90;;;;;;5110709;28;20471;-34
2022/07/01 09:05:27;;;;;;;18.20;12.20;;;20.10;98.60;;;;;;5103346;28;20091;-34
2022/07/01 09:07:58;;;;;;;16.40;10.52;;;20.30;98.50;;;;;;5113793;28;20095;-34
2022/07/01 09:10:25;;;;;;;21.35;10.75;;;20.50;97.90;;;;;;5106907;27;20082;-34
2022/07/01 09:12:52;;;;;;;14.48;9.63;;;20.60;97.90;;;;;;5105202;28;20083;-34
2022/07/01 09:15:26;;;;;;;14.68;9.48;;;20.70;98.10;;;;;;5102687;28;20039;-34
2022/07/01 09:17:54;;;;;;;14.75;9.13;;;20.80;96.80;;;;;;5093500;28;20127;-34
2022/07/01 09:20:26;;;;;;;13.90;9.63;;;20.90;96.60;;;;;;5092286;28;20091;-34
2022/07/01 09:23:00;;;;;;;14.13;10.10;;;20.90;96.50;;;;;;5093460;28;20060;-34
2022/07/01 09:25:29;;;;;;;15.30;10.27;;;21.00;95.70;;;;;;5094447;28;20686;-34
2022/07/01 09:28:06;;;;;;;14.68;10.40;;;21.00;95.80;;;;;;5101171;28;20058;-34
2022/07/01 09:30:33;;;;;;;18.73;10.93;;;21.10;96.00;;;;;;5104906;28;20044;-34
2022/07/01 09:33:07;;;;;;;20.42;10.32;;;21.10;95.90;;;;;;5109403;28;20040;-34
2022/07/01 09:35:36;;;;;;;12.60;8.05;;;21.00;95.20;;;;;;5095683;28;20105;-34
2022/07/01 09:38:02;;;;;;;13.20;8.75;;;20.90;95.30;;;;;;5098793;28;20047;-34
2022/07/01 09:40:51;;;;;;;10.88;7.95;;;20.90;95.10;;;;;;5129470;27;20134;-34
2022/07/01 09:43:19;;;;;;;11.35;8.52;;;20.80;94.70;;;;;;5098340;28;20083;-34
2022/07/01 09:45:56;;;;;;;12.40;7.10;;;20.80;95.00;;;;;;5098209;28;20725;-33
2022/07/01 09:48:24;;;;;;;14.65;7.70;;;20.80;95.40;;;;;;5101422;28;20130;-34
2022/07/01 09:50:52;;;;;;;12.55;7.00;;;20.80;95.00;;;;;;5106530;28;20093;-34
2022/07/01 09:53:19;;;;;;;13.70;7.60;;;20.80;94.70;;;;;;5098676;28;20126;-34
2022/07/01 09:55:46;;;;;;;13.80;6.25;;;20.80;94.80;;;;;;5102668;28;20392;-34
2022/07/01 09:58:12;;;;;;;9.77;5.70;;;20.70;94.90;;;;;;5097446;27;20047;-35
2022/07/01 10:00:39;;;;;;;12.32;5.05;;;20.80;94.70;;;;;;5107343;27;20111;-34
2022/07/01 10:03:07;;;;;;;8.90;3.63;;;21.00;94.30;;;;;;5106609;28;20452;-34
2022/07/01 10:05:37;;;;;;;9.70;3.67;;;21.00;93.40;;;;;;5101144;28;20112;-34
2022/07/01 10:08:25;;;;;;;6.45;3.50;;;21.10;93.10;;;;;;5105744;28;20048;-34
2022/07/01 10:10:58;;;;;;;13.35;5.03;;;21.30;93.40;;;;;;5108086;28;20078;-34
2022/07/01 10:13:25;;;;;;;11.23;5.13;;;21.50;93.00;;;;;;5104501;28;20133;-34
2022/07/01 10:15:52;;;;;;;9.30;4.57;;;21.70;92.30;;;;;;5134915;27;20499;-34
2022/07/01 10:18:22;;;;;;;7.45;3.90;;;21.70;92.00;;;;;;5100304;28;20074;-34
2022/07/01 10:20:49;;;;;;;6.93;4.25;;;21.70;91.50;;;;;;5110012;28;20051;-34
2022/07/01 10:23:17;;;;;;;12.35;5.10;;;21.60;91.50;;;;;;5110249;28;20376;-34
2022/07/01 10:25:45;;;;;;;14.20;4.90;;;21.50;91.00;;;;;;5106212;28;20059;-34
2022/07/01 10:28:23;;;;;;;12.48;4.93;;;21.50;91.10;;;;;;5103845;27;20113;-34
2022/07/01 10:31:01;;;;;;;9.82;4.85;;;21.70;91.60;;;;;;5093453;28;20058;-34
2022/07/01 10:33:32;;;;;;;8.63;4.53;;;21.70;91.60;;;;;;5099555;28;20047;-35
2022/07/01 10:36:08;;;;;;;10.25;4.55;;;21.80;91.70;;;;;;5100895;28;20131;-35
2022/07/01 10:38:36;;;;;;;7.90;3.85;;;22.10;90.90;;;;;;5107124;28;20073;-34
2022/07/01 10:41:10;;;;;;;6.95;4.15;;;22.20;90.50;;;;;;5096152;27;20131;-34
2022/07/01 10:43:41;;;;;;;9.73;3.90;;;22.10;90.70;;;;;;5096382;28;20092;-34
2022/07/01 10:46:08;;;;;;;6.40;3.83;;;22.20;90.60;;;;;;5103714;28;20072;-34
2022/07/01 10:48:35;;;;;;;7.18;3.78;;;22.30;90.70;;;;;;5110339;28;20091;-34
2022/07/01 10:51:02;;;;;;;10.07;3.63;;;22.30;90.00;;;;;;5109631;28;20116;-33
2022/07/01 10:53:46;;;;;;;7.65;3.40;;;22.30;90.10;;;;;;5110569;28;20055;-33
2022/07/01 10:56:16;;;;;;;6.38;2.88;;;22.40;90.10;;;;;;5111888;28;20047;-34
2022/07/01 10:58:43;;;;;;;7.40;2.92;;;22.60;90.10;;;;;;5111800;28;20135;-33
2022/07/01 11:01:10;;;;;;;8.32;2.90;;;22.70;89.90;;;;;;5111880;28;20124;-35
2022/07/01 11:03:39;;;;;;;6.63;2.80;;;22.90;89.30;;;;;;5101709;28;20135;-34
2022/07/01 11:06:06;;;;;;;8.75;3.00;;;23.00;88.60;;;;;;5096203;28;20044;-34
2022/07/01 11:08:32;;;;;;;8.57;2.78;;;23.10;87.50;;;;;;5107448;28;20139;-34
2022/07/01 11:11:03;;;;;;;5.45;2.30;;;23.20;85.80;;;;;;5109037;28;20075;-34
2022/07/01 11:13:30;;;;;;;7.78;2.20;;;23.30;86.30;;;;;;5113963;28;20066;-34
2022/07/01 11:15:57;;;;;;;5.00;2.15;;;23.40;86.90;;;;;;5116181;28;20444;-36
2022/07/01 11:18:24;;;;;;;4.40;1.90;;;23.60;85.90;;;;;;5108723;28;20044;-34
2022/07/01 11:20:51;;;;;;;7.20;2.33;;;23.70;85.40;;;;;;5105317;28;20131;-35
2022/07/01 11:23:20;;;;;;;7.82;2.05;;;23.70;84.30;;;;;;5117307;28;20055;-34
2022/07/01 11:25:47;;;;;;;5.75;1.65;;;23.70;84.80;;;;;;5114936;28;20052;-35
2022/07/01 11:28:15;;;;;;;7.85;1.70;;;23.70;83.60;;;;;;5111384;27;20138;-35
2022/07/01 11:30:42;;;;;;;7.18;1.52;;;23.70;83.80;;;;;;5096220;28;20056;-34
2022/07/01 11:33:08;;;;;;;4.68;1.20;;;23.80;84.00;;;;;;5102018;28;20131;-35
2022/07/01 11:41:06;;;;;;;6.38;1.17;;;24.40;78.80;;;;;;5099752;27;20138;-34
2022/07/01 11:43:34;;;;;;;6.10;1.10;;;24.50;80.30;;;;;;5102459;27;20063;-35
2022/07/01 11:46:02;;;;;;;5.45;1.30;;;24.50;79.50;;;;;;5103656;28;20122;-34
2022/07/01 11:48:39;;;;;;;6.53;1.13;;;24.50;78.90;;;;;;5114962;28;20134;-35
2022/07/01 11:51:08;;;;;;;4.15;1.25;;;24.50;78.90;;;;;;5108822;28;20385;-34
2022/07/01 11:53:35;;;;;;;5.25;1.15;;;24.50;78.00;;;;;;5095871;28;20109;-34
2022/07/01 11:56:02;;;;;;;7.47;1.50;;;24.60;76.60;;;;;;5103302;28;20487;-35
2022/07/01 11:58:46;;;;;;;3.97;1.40;;;24.70;75.00;;;;;;5108500;28;20100;-34
2022/07/01 12:01:20;;;;;;;4.63;0.93;;;24.80;73.50;;;;;;5114147;28;20047;-34
2022/07/01 12:03:47;;;;;;;3.53;1.00;;;25.00;75.30;;;;;;5112424;27;20056;-35
2022/07/01 12:06:13;;;;;;;4.28;1.00;;;25.20;74.50;;;;;;5103583;27;20076;-34
2022/07/01 12:08:43;;;;;;;6.78;1.60;;;25.20;74.30;;;;;;5101809;27;20150;-35
2022/07/01 12:11:09;;;;;;;7.72;1.42;;;25.20;74.20;;;;;;5108000;28;20055;-35
2022/07/01 12:13:38;;;;;;;4.13;1.20;;;25.20;74.60;;;;;;5103342;27;20130;-35
2022/07/01 12:16:09;;;;;;;3.90;1.50;;;25.30;75.20;;;;;;5097431;28;20466;-35
2022/07/01 12:18:36;;;;;;;5.95;1.25;;;25.40;75.30;;;;;;5100428;28;20052;-35
2022/07/01 12:21:03;;;;;;;6.45;1.20;;;25.30;74.50;;;;;;5103632;27;20402;-34
2022/07/01 12:23:30;;;;;;;4.32;1.17;;;25.10;73.80;;;;;;5108553;27;20052;-35
2022/07/01 12:25:56;;;;;;;5.32;1.30;;;24.90;74.80;;;;;;5105650;28;20058;-35
2022/07/01 12:28:31;;;;;;;6.90;1.20;;;24.90;75.50;;;;;;5110864;28;20040;-35
2022/07/01 12:31:06;;;;;;;4.53;1.00;;;25.00;75.00;;;;;;5109978;28;20177;-34
2022/07/01 12:33:35;;;;;;;4.90;1.00;;;25.00;73.90;;;;;;5106707;27;20044;-35
2022/07/01 12:36:03;;;;;;;6.18;1.10;;;24.90;73.60;;;;;;5102694;28;20075;-35
2022/07/01 12:38:30;;;;;;;5.78;1.38;;;24.90;73.30;;;;;;5108678;27;20118;-35
2022/07/01 12:40:56;;;;;;;3.80;1.10;;;24.80;72.70;;;;;;5103623;27;20076;-35
2022/07/01 12:43:24;;;;;;;5.60;1.30;;;24.50;72.80;;;;;;5109789;28;20471;-35
2022/07/01 12:45:51;;;;;;;5.25;1.10;;;24.40;72.80;;;;;;5103415;28;20101;-36
2022/07/01 12:48:18;;;;;;;6.78;1.08;;;24.40;73.90;;;;;;5093706;28;20090;-35
2022/07/01 12:50:47;;;;;;;3.88;1.00;;;24.60;73.60;;;;;;5096308;27;20079;-35